sensor_id;sensor_type;location;lat;lon;timestamp;pressure;altitude;pressure_sealevel;temperature;humidity
75938;BME280;64615;32.062;34.834;2023-04-24T00:00:02;100677.75;;;23.86;54.39
75938;BME280;64615;32.062;34.834;2023-04-24T00:02:30;100676.63;;;23.82;54.12
75938;BME280;64615;32.062;34.834;2023-04-24T00:04:57;100674.22;;;23.80;54.43
75938;BME280;64615;32.062;34.834;2023-04-24T00:07:22;100665.22;;;23.80;54.06
75938;BME280;64615;32.062;34.834;2023-04-24T00:09:48;100665.50;;;23.78;54.16
75938;BME280;64615;32.062;34.834;2023-04-24T00:12:13;100664.94;;;23.76;54.53
75938;BME280;64615;32.062;34.834;2023-04-24T00:14:39;100656.25;;;23.74;54.36
75938;BME280;64615;32.062;34.834;2023-04-24T00:17:05;100661.69;;;23.74;54.20
75938;BME280;64615;32.062;34.834;2023-04-24T00:19:31;100660.28;;;23.72;54.33
75938;BME280;64615;32.062;34.834;2023-04-24T00:21:56;100655.16;;;23.70;54.58
75938;BME280;64615;32.062;34.834;2023-04-24T00:24:22;100662.47;;;23.70;54.52
75938;BME280;64615;32.062;34.834;2023-04-24T00:26:48;100665.72;;;23.67;54.30
75938;BME280;64615;32.062;34.834;2023-04-24T00:29:13;100657.84;;;23.65;54.22
75938;BME280;64615;32.062;34.834;2023-04-24T00:31:39;100660.28;;;23.67;54.21
75938;BME280;64615;32.062;34.834;2023-04-24T00:34:05;100652.41;;;23.65;54.43
75938;BME280;64615;32.062;34.834;2023-04-24T00:36:31;100665.19;;;23.64;54.36
75938;BME280;64615;32.062;34.834;2023-04-24T00:38:57;100668.72;;;23.65;54.36
75938;BME280;64615;32.062;34.834;2023-04-24T00:41:24;100667.63;;;23.66;54.67
75938;BME280;64615;32.062;34.834;2023-04-24T00:43:52;100671.72;;;23.69;54.26
75938;BME280;64615;32.062;34.834;2023-04-24T00:46:17;100669.28;;;23.72;54.17
75938;BME280;64615;32.062;34.834;2023-04-24T00:48:44;100670.09;;;23.73;53.90
75938;BME280;64615;32.062;34.834;2023-04-24T00:51:09;100670.09;;;23.73;54.16
75938;BME280;64615;32.062;34.834;2023-04-24T00:53:35;100672.00;;;23.72;54.11
75938;BME280;64615;32.062;34.834;2023-04-24T00:56:02;100671.16;;;23.72;54.20
75938;BME280;64615;32.062;34.834;2023-04-24T00:58:28;100679.06;;;23.73;54.29
75938;BME280;64615;32.062;34.834;2023-04-24T01:00:54;100670.91;;;23.73;54.26
75938;BME280;64615;32.062;34.834;2023-04-24T01:03:22;100679.06;;;23.73;53.92
75938;BME280;64615;32.062;34.834;2023-04-24T01:05:50;100668.75;;;23.75;54.16
75938;BME280;64615;32.062;34.834;2023-04-24T01:08:16;100678.25;;;23.73;54.20
75938;BME280;64615;32.062;34.834;2023-04-24T01:10:43;100675.53;;;23.73;54.33
75938;BME280;64615;32.062;34.834;2023-04-24T01:13:09;100682.34;;;23.75;54.17
75938;BME280;64615;32.062;34.834;2023-04-24T01:15:35;100683.16;;;23.76;54.20
75938;BME280;64615;32.062;34.834;2023-04-24T01:18:01;100685.31;;;23.74;54.20
75938;BME280;64615;32.062;34.834;2023-04-24T01:20:26;100684.50;;;23.73;53.96
75938;BME280;64615;32.062;34.834;2023-04-24T01:22:54;100684.75;;;23.72;53.92
75938;BME280;64615;32.062;34.834;2023-04-24T01:25:22;100691.56;;;23.69;53.81
75938;BME280;64615;32.062;34.834;2023-04-24T01:27:48;100689.09;;;23.68;54.15
75938;BME280;64615;32.062;34.834;2023-04-24T01:30:14;100687.75;;;23.65;53.90
75938;BME280;64615;32.062;34.834;2023-04-24T01:32:41;100695.06;;;23.64;53.93
75938;BME280;64615;32.062;34.834;2023-04-24T01:35:10;100685.78;;;23.60;54.06
75938;BME280;64615;32.062;34.834;2023-04-24T01:37:36;100697.22;;;23.62;54.10
75938;BME280;64615;32.062;34.834;2023-04-24T01:40:06;100688.81;;;23.59;54.31
75938;BME280;64615;32.062;34.834;2023-04-24T01:42:32;100696.97;;;23.59;54.02
75938;BME280;64615;32.062;34.834;2023-04-24T01:44:59;100698.84;;;23.58;54.15
75938;BME280;64615;32.062;34.834;2023-04-24T01:47:25;100709.16;;;23.56;54.29
75938;BME280;64615;32.062;34.834;2023-04-24T01:49:51;100696.94;;;23.54;53.86
75938;BME280;64615;32.062;34.834;2023-04-24T01:52:17;100701.53;;;23.53;54.05
75938;BME280;64615;32.062;34.834;2023-04-24T01:54:44;100705.34;;;23.52;54.09
75938;BME280;64615;32.062;34.834;2023-04-24T01:57:09;100695.00;;;23.49;54.18
75938;BME280;64615;32.062;34.834;2023-04-24T01:59:35;100707.81;;;23.54;54.10
75938;BME280;64615;32.062;34.834;2023-04-24T02:02:02;100697.47;;;23.56;54.01
75938;BME280;64615;32.062;34.834;2023-04-24T02:04:28;100701.31;;;23.60;53.95
75938;BME280;64615;32.062;34.834;2023-04-24T02:06:54;100704.03;;;23.60;53.65
75938;BME280;64615;32.062;34.834;2023-04-24T02:09:19;100698.03;;;23.58;54.04
75938;BME280;64615;32.062;34.834;2023-04-24T02:11:45;100702.09;;;23.60;53.93
75938;BME280;64615;32.062;34.834;2023-04-24T02:14:11;100706.75;;;23.60;53.88
75938;BME280;64615;32.062;34.834;2023-04-24T02:16:36;100710.25;;;23.60;53.70
75938;BME280;64615;32.062;34.834;2023-04-24T02:19:02;100707.53;;;23.60;53.74
75938;BME280;64615;32.062;34.834;2023-04-24T02:21:28;100707.53;;;23.60;53.82
75938;BME280;64615;32.062;34.834;2023-04-24T02:23:54;100704.81;;;23.60;53.61
75938;BME280;64615;32.062;34.834;2023-04-24T02:26:20;100702.09;;;23.60;53.49
75938;BME280;64615;32.062;34.834;2023-04-24T02:28:45;100701.31;;;23.60;53.75
75938;BME280;64615;32.062;34.834;2023-04-24T02:31:11;100704.03;;;23.60;53.71
75938;BME280;64615;32.062;34.834;2023-04-24T02:33:37;100705.63;;;23.61;53.61
75938;BME280;64615;32.062;34.834;2023-04-24T02:36:02;100708.91;;;23.58;53.62
75938;BME280;64615;32.062;34.834;2023-04-24T02:38:29;100719.78;;;23.58;53.68
75938;BME280;64615;32.062;34.834;2023-04-24T02:40:54;100707.81;;;23.54;53.46
75938;BME280;64615;32.062;34.834;2023-04-24T02:43:20;100715.97;;;23.54;53.74
75938;BME280;64615;32.062;34.834;2023-04-24T02:45:46;100718.09;;;23.52;53.73
75938;BME280;64615;32.062;34.834;2023-04-24T02:48:12;100713.75;;;23.51;53.65
75938;BME280;64615;32.062;34.834;2023-04-24T02:50:37;100707.50;;;23.50;53.42
75938;BME280;64615;32.062;34.834;2023-04-24T02:53:03;100709.69;;;23.48;53.73
75938;BME280;64615;32.062;34.834;2023-04-24T02:55:28;100718.09;;;23.47;53.57
75938;BME280;64615;32.062;34.834;2023-04-24T02:57:54;100721.06;;;23.45;53.62
75938;BME280;64615;32.062;34.834;2023-04-24T03:00:20;100723.78;;;23.45;53.69
75938;BME280;64615;32.062;34.834;2023-04-24T03:02:45;100721.56;;;23.42;53.63
75938;BME280;64615;32.062;34.834;2023-04-24T03:05:12;100714.50;;;23.41;53.56
75938;BME280;64615;32.062;34.834;2023-04-24T03:07:37;100721.81;;;23.41;53.43
75938;BME280;64615;32.062;34.834;2023-04-24T03:10:04;100723.47;;;23.42;54.44
75938;BME280;64615;32.062;34.834;2023-04-24T03:12:31;100724.03;;;23.44;54.52
75938;BME280;64615;32.062;34.834;2023-04-24T03:14:57;100725.91;;;23.43;53.88
75938;BME280;64615;32.062;34.834;2023-04-24T03:17:22;100728.94;;;23.47;53.51
75938;BME280;64615;32.062;34.834;2023-04-24T03:19:48;100722.13;;;23.44;54.29
75938;BME280;64615;32.062;34.834;2023-04-24T03:22:13;100720.19;;;23.45;53.96
75938;BME280;64615;32.062;34.834;2023-04-24T03:24:39;100729.97;;;23.41;53.91
75938;BME280;64615;32.062;34.834;2023-04-24T03:27:05;100731.59;;;23.42;54.18
75938;BME280;64615;32.062;34.834;2023-04-24T03:29:31;100737.34;;;23.45;54.07
75938;BME280;64615;32.062;34.834;2023-04-24T03:31:56;100744.19;;;23.48;54.15
75938;BME280;64615;32.062;34.834;2023-04-24T03:34:22;100736.03;;;23.48;54.16
75938;BME280;64615;32.062;34.834;2023-04-24T03:36:48;100741.47;;;23.48;54.28
75938;BME280;64615;32.062;34.834;2023-04-24T03:39:13;100744.47;;;23.51;53.90
75938;BME280;64615;32.062;34.834;2023-04-24T03:41:39;100751.56;;;23.57;53.93
75938;BME280;64615;32.062;34.834;2023-04-24T03:44:04;100748.88;;;23.68;53.57
75938;BME280;64615;32.062;34.834;2023-04-24T03:46:30;100745.91;;;23.64;53.55
75938;BME280;64615;32.062;34.834;2023-04-24T03:48:56;100752.41;;;23.63;53.03
75938;BME280;64615;32.062;34.834;2023-04-24T03:51:21;100758.41;;;23.65;52.94
75938;BME280;64615;32.062;34.834;2023-04-24T03:53:48;100749.72;;;23.73;52.85
75938;BME280;64615;32.062;34.834;2023-04-24T03:56:14;100760.44;;;24.00;53.09
75938;BME280;64615;32.062;34.834;2023-04-24T03:58:40;100759.72;;;24.20;52.90
75938;BME280;64615;32.062;34.834;2023-04-24T04:01:06;100767.09;;;24.29;53.19
75938;BME280;64615;32.062;34.834;2023-04-24T04:03:31;100769.84;;;24.44;54.35
75938;BME280;64615;32.062;34.834;2023-04-24T04:05:57;100775.03;;;24.61;55.79
75938;BME280;64615;32.062;34.834;2023-04-24T04:08:23;100776.44;;;24.84;55.98
75938;BME280;64615;32.062;34.834;2023-04-24T04:10:49;100770.72;;;24.85;55.37
75938;BME280;64615;32.062;34.834;2023-04-24T04:13:14;100779.41;;;24.77;54.14
75938;BME280;64615;32.062;34.834;2023-04-24T04:15:40;100779.97;;;24.74;52.80
75938;BME280;64615;32.062;34.834;2023-04-24T04:18:06;100787.84;;;24.71;52.07
75938;BME280;64615;32.062;34.834;2023-04-24T04:20:31;100780.78;;;24.75;51.83
75938;BME280;64615;32.062;34.834;2023-04-24T04:22:57;100789.50;;;24.77;50.89
75938;BME280;64615;32.062;34.834;2023-04-24T04:25:23;100777.25;;;24.79;50.97
75938;BME280;64615;32.062;34.834;2023-04-24T04:27:48;100780.78;;;24.85;50.40
75938;BME280;64615;32.062;34.834;2023-04-24T04:30:14;100780.00;;;24.89;50.26
75938;BME280;64615;32.062;34.834;2023-04-24T04:32:40;100779.19;;;24.94;49.76
75938;BME280;64615;32.062;34.834;2023-04-24T04:35:06;100781.66;;;24.96;49.05
75938;BME280;64615;32.062;34.834;2023-04-24T04:37:32;100781.66;;;24.96;48.81
75938;BME280;64615;32.062;34.834;2023-04-24T04:40:02;100775.09;;;24.97;48.35
75938;BME280;64615;32.062;34.834;2023-04-24T04:42:32;100780.00;;;25.00;47.77
75938;BME280;64615;32.062;34.834;2023-04-24T04:45:02;100787.91;;;24.96;47.26
75938;BME280;64615;32.062;34.834;2023-04-24T04:47:28;100790.91;;;25.00;46.98
75938;BME280;64615;32.062;34.834;2023-04-24T04:49:54;100793.06;;;25.03;46.68
75938;BME280;64615;32.062;34.834;2023-04-24T04:52:20;100797.69;;;25.12;46.49
75938;BME280;64615;32.062;34.834;2023-04-24T04:54:50;100795.25;;;25.21;46.41
75938;BME280;64615;32.062;34.834;2023-04-24T04:57:15;100794.41;;;25.30;46.13
75938;BME280;64615;32.062;34.834;2023-04-24T04:59:41;100790.34;;;25.38;46.23
75938;BME280;64615;32.062;34.834;2023-04-24T05:02:07;100794.38;;;25.46;46.30
75938;BME280;64615;32.062;34.834;2023-04-24T05:04:32;100799.00;;;25.50;45.74
75938;BME280;64615;32.062;34.834;2023-04-24T05:06:58;100814.28;;;25.61;46.32
75938;BME280;64615;32.062;34.834;2023-04-24T05:09:24;100808.28;;;25.69;45.76
75938;BME280;64615;32.062;34.834;2023-04-24T05:11:52;100803.59;;;25.75;46.04
75938;BME280;64615;32.062;34.834;2023-04-24T05:14:18;100801.69;;;25.81;45.81
75938;BME280;64615;32.062;34.834;2023-04-24T05:16:44;100806.34;;;25.75;45.16
75938;BME280;64615;32.062;34.834;2023-04-24T05:19:10;100804.44;;;25.76;45.56
75938;BME280;64615;32.062;34.834;2023-04-24T05:21:37;100805.53;;;25.80;45.49
75938;BME280;64615;32.062;34.834;2023-04-24T05:24:04;100805.22;;;25.86;45.30
75938;BME280;64615;32.062;34.834;2023-04-24T05:26:30;100813.38;;;25.86;45.46
75938;BME280;64615;32.062;34.834;2023-04-24T05:28:56;100798.66;;;25.87;45.30
75938;BME280;64615;32.062;34.834;2023-04-24T05:31:22;100809.56;;;25.87;45.05
75938;BME280;64615;32.062;34.834;2023-04-24T05:33:47;100813.66;;;25.90;45.22
75938;BME280;64615;32.062;34.834;2023-04-24T05:36:13;100815.31;;;25.91;45.03
75938;BME280;64615;32.062;34.834;2023-04-24T05:38:39;100815.84;;;25.88;45.52
75938;BME280;64615;32.062;34.834;2023-04-24T05:41:04;100812.56;;;25.86;45.29
75938;BME280;64615;32.062;34.834;2023-04-24T05:43:30;100822.16;;;25.83;45.48
75938;BME280;64615;32.062;34.834;2023-04-24T05:45:56;100821.88;;;25.85;45.56
75938;BME280;64615;32.062;34.834;2023-04-24T05:48:21;100828.94;;;25.86;45.21
75938;BME280;64615;32.062;34.834;2023-04-24T05:50:50;100827.03;;;25.86;45.16
75938;BME280;64615;32.062;34.834;2023-04-24T05:53:18;100822.97;;;25.84;45.67
75938;BME280;64615;32.062;34.834;2023-04-24T05:55:43;100831.97;;;25.79;45.68
75938;BME280;64615;32.062;34.834;2023-04-24T05:58:09;100833.91;;;25.73;45.88
75938;BME280;64615;32.062;34.834;2023-04-24T06:00:35;100839.63;;;25.72;45.11
75938;BME280;64615;32.062;34.834;2023-04-24T06:03:01;100837.16;;;25.70;45.11
75938;BME280;64615;32.062;34.834;2023-04-24T06:05:29;100836.34;;;25.70;45.59
75938;BME280;64615;32.062;34.834;2023-04-24T06:07:55;100847.81;;;25.67;45.52
75938;BME280;64615;32.062;34.834;2023-04-24T06:10:21;100846.75;;;25.63;45.84
75938;BME280;64615;32.062;34.834;2023-04-24T06:12:47;100847.81;;;25.62;45.26
75938;BME280;64615;32.062;34.834;2023-04-24T06:15:12;100843.19;;;25.62;45.25
75938;BME280;64615;32.062;34.834;2023-04-24T06:17:38;100848.66;;;25.62;46.05
75938;BME280;64615;32.062;34.834;2023-04-24T06:20:05;100840.47;;;25.57;46.15
75938;BME280;64615;32.062;34.834;2023-04-24T06:22:32;100845.91;;;25.52;45.64
75938;BME280;64615;32.062;34.834;2023-04-24T06:24:57;100846.72;;;25.48;45.70
75938;BME280;64615;32.062;34.834;2023-04-24T06:27:23;100846.75;;;25.43;45.68
75938;BME280;64615;32.062;34.834;2023-04-24T06:29:48;100857.34;;;25.39;45.95
75938;BME280;64615;32.062;34.834;2023-04-24T06:32:23;100848.66;;;25.37;46.07
75938;BME280;64615;32.062;34.834;2023-04-24T06:34:50;100855.19;;;25.36;46.06
75938;BME280;64615;32.062;34.834;2023-04-24T06:37:16;100852.47;;;25.36;46.28
75938;BME280;64615;32.062;34.834;2023-04-24T06:39:42;100850.00;;;25.35;46.21
75938;BME280;64615;32.062;34.834;2023-04-24T06:42:07;100857.66;;;25.33;46.20
75938;BME280;64615;32.062;34.834;2023-04-24T06:44:35;100863.09;;;25.33;46.23
75938;BME280;64615;32.062;34.834;2023-04-24T06:47:06;100865.53;;;25.34;46.15
75938;BME280;64615;32.062;34.834;2023-04-24T06:49:34;100854.91;;;25.33;45.99
75938;BME280;64615;32.062;34.834;2023-04-24T06:52:00;100865.00;;;25.32;45.54
75938;BME280;64615;32.062;34.834;2023-04-24T06:54:25;100870.72;;;25.30;46.58
75938;BME280;64615;32.062;34.834;2023-04-24T06:56:51;100884.06;;;25.27;46.61
75938;BME280;64615;32.062;34.834;2023-04-24T06:59:17;100883.53;;;25.25;46.52
75938;BME280;64615;32.062;34.834;2023-04-24T07:01:43;100884.59;;;25.29;45.73
75938;BME280;64615;32.062;34.834;2023-04-24T07:04:08;100881.88;;;25.24;46.38
75938;BME280;64615;32.062;34.834;2023-04-24T07:06:35;100873.72;;;25.24;45.68
75938;BME280;64615;32.062;34.834;2023-04-24T07:09:01;100881.06;;;25.23;45.76
75938;BME280;64615;32.062;34.834;2023-04-24T07:11:27;100893.34;;;25.21;46.39
75938;BME280;64615;32.062;34.834;2023-04-24T07:13:55;100886.50;;;25.18;46.05
75938;BME280;64615;32.062;34.834;2023-04-24T07:16:21;100894.69;;;25.18;46.50
75938;BME280;64615;32.062;34.834;2023-04-24T07:18:46;100891.44;;;25.16;45.97
75938;BME280;64615;32.062;34.834;2023-04-24T07:21:12;100897.41;;;25.13;46.58
75938;BME280;64615;32.062;34.834;2023-04-24T07:23:38;100902.03;;;25.13;45.95
75938;BME280;64615;32.062;34.834;2023-04-24T07:26:04;100903.13;;;25.07;46.87
75938;BME280;64615;32.062;34.834;2023-04-24T07:28:29;100914.28;;;25.05;46.35
75938;BME280;64615;32.062;34.834;2023-04-24T07:30:58;100903.13;;;25.07;46.16
75938;BME280;64615;32.062;34.834;2023-04-24T07:33:28;100900.94;;;25.04;46.86
75938;BME280;64615;32.062;34.834;2023-04-24T07:35:54;100908.28;;;25.03;46.24
75938;BME280;64615;32.062;34.834;2023-04-24T07:38:19;100902.56;;;25.00;46.75
75938;BME280;64615;32.062;34.834;2023-04-24T07:40:48;100905.28;;;24.95;46.80
75938;BME280;64615;32.062;34.834;2023-04-24T07:43:14;100904.72;;;24.93;46.47
75938;BME280;64615;32.062;34.834;2023-04-24T07:45:40;100900.34;;;24.92;47.01
75938;BME280;64615;32.062;34.834;2023-04-24T07:48:06;100903.63;;;24.88;47.21
75938;BME280;64615;32.062;34.834;2023-04-24T07:50:34;100909.06;;;24.88;46.08
75938;BME280;64615;32.062;34.834;2023-04-24T07:53:01;100904.72;;;24.87;45.99
75938;BME280;64615;32.062;34.834;2023-04-24T07:55:27;100910.16;;;24.87;45.92
75938;BME280;64615;32.062;34.834;2023-04-24T07:57:52;100907.41;;;24.82;46.33
75938;BME280;64615;32.062;34.834;2023-04-24T08:00:19;100904.13;;;24.80;45.80
75938;BME280;64615;32.062;34.834;2023-04-24T08:02:45;100904.41;;;24.79;46.65
75938;BME280;64615;32.062;34.834;2023-04-24T08:05:10;100905.22;;;24.74;46.15
75938;BME280;64615;32.062;34.834;2023-04-24T08:07:36;100906.28;;;24.73;46.40
75938;BME280;64615;32.062;34.834;2023-04-24T08:10:03;100916.34;;;24.73;46.01
75938;BME280;64615;32.062;34.834;2023-04-24T08:12:29;100906.03;;;24.70;46.40
75938;BME280;64615;32.062;34.834;2023-04-24T08:14:55;100911.47;;;24.70;45.00
75938;BME280;64615;32.062;34.834;2023-04-24T08:17:21;100905.72;;;24.66;45.12
75938;BME280;64615;32.062;34.834;2023-04-24T08:19:46;100906.25;;;24.63;45.63
75938;BME280;64615;32.062;34.834;2023-04-24T08:22:17;100908.16;;;24.63;44.96
75938;BME280;64615;32.062;34.834;2023-04-24T08:24:43;100909.50;;;24.60;45.21
75938;BME280;64615;32.062;34.834;2023-04-24T08:27:09;100908.97;;;24.58;44.70
75938;BME280;64615;32.062;34.834;2023-04-24T08:29:36;100918.22;;;24.57;45.36
75938;BME280;64615;32.062;34.834;2023-04-24T08:32:02;100918.47;;;24.56;45.74
75938;BME280;64615;32.062;34.834;2023-04-24T08:34:27;100925.28;;;24.53;45.33
75938;BME280;64615;32.062;34.834;2023-04-24T08:36:53;100913.81;;;24.51;45.36
75938;BME280;64615;32.062;34.834;2023-04-24T08:39:19;100917.63;;;24.50;45.07
75938;BME280;64615;32.062;34.834;2023-04-24T08:41:45;100914.91;;;24.50;44.70
75938;BME280;64615;32.062;34.834;2023-04-24T08:44:13;100915.44;;;24.47;45.22
75938;BME280;64615;32.062;34.834;2023-04-24T08:46:43;100912.72;;;24.47;44.54
75938;BME280;64615;32.062;34.834;2023-04-24T08:49:12;100907.53;;;24.45;44.99
75938;BME280;64615;32.062;34.834;2023-04-24T08:51:39;100913.00;;;24.45;44.98
75938;BME280;64615;32.062;34.834;2023-04-24T08:54:05;100913.28;;;24.44;45.10
75938;BME280;64615;32.062;34.834;2023-04-24T08:56:33;100915.19;;;24.43;45.60
75938;BME280;64615;32.062;34.834;2023-04-24T08:58:59;100908.91;;;24.43;44.88
75938;BME280;64615;32.062;34.834;2023-04-24T09:01:25;100908.09;;;24.42;44.56
75938;BME280;64615;32.062;34.834;2023-04-24T09:03:53;100900.44;;;24.39;44.65
75938;BME280;64615;32.062;34.834;2023-04-24T09:06:21;100907.81;;;24.39;45.07
75938;BME280;64615;32.062;34.834;2023-04-24T09:08:48;100914.34;;;24.38;45.10
75938;BME280;64615;32.062;34.834;2023-04-24T09:11:16;100904.53;;;24.37;45.69
75938;BME280;64615;32.062;34.834;2023-04-24T09:13:43;100903.72;;;24.36;44.96
75938;BME280;64615;32.062;34.834;2023-04-24T09:16:08;100897.69;;;24.34;44.81
75938;BME280;64615;32.062;34.834;2023-04-24T09:18:34;100889.81;;;24.33;44.54
75938;BME280;64615;32.062;34.834;2023-04-24T09:21:02;100891.97;;;24.31;44.49
75938;BME280;64615;32.062;34.834;2023-04-24T09:23:29;100904.75;;;24.30;43.99
75938;BME280;64615;32.062;34.834;2023-04-24T09:25:56;100905.03;;;24.29;44.09
75938;BME280;64615;32.062;34.834;2023-04-24T09:28:32;100902.28;;;24.29;44.00
75938;BME280;64615;32.062;34.834;2023-04-24T09:31:12;100899.03;;;24.27;44.48
75938;BME280;64615;32.062;34.834;2023-04-24T09:33:47;100895.50;;;24.26;44.88
75938;BME280;64615;32.062;34.834;2023-04-24T09:36:18;100892.22;;;24.24;44.75
75938;BME280;64615;32.062;34.834;2023-04-24T09:38:44;100894.13;;;24.24;43.94
75938;BME280;64615;32.062;34.834;2023-04-24T09:41:13;100893.56;;;24.22;44.35
75938;BME280;64615;32.062;34.834;2023-04-24T09:43:39;100900.66;;;24.23;44.12
75938;BME280;64615;32.062;34.834;2023-04-24T09:46:07;100890.59;;;24.23;44.32
75938;BME280;64615;32.062;34.834;2023-04-24T09:48:37;100896.84;;;24.24;44.50
75938;BME280;64615;32.062;34.834;2023-04-24T09:51:05;100894.13;;;24.24;45.05
75938;BME280;64615;32.062;34.834;2023-04-24T09:53:32;100887.88;;;24.23;44.20
75938;BME280;64615;32.062;34.834;2023-04-24T09:56:08;100878.91;;;24.23;44.46
75938;BME280;64615;32.062;34.834;2023-04-24T09:58:35;100894.94;;;24.24;43.65
75938;BME280;64615;32.062;34.834;2023-04-24T10:01:01;100892.75;;;24.21;45.12
75938;BME280;64615;32.062;34.834;2023-04-24T10:03:30;100893.56;;;24.22;45.56
75938;BME280;64615;32.062;34.834;2023-04-24T10:06:00;100895.22;;;24.23;45.72
75938;BME280;64615;32.062;34.834;2023-04-24T10:08:33;100886.53;;;24.26;45.89
75938;BME280;64615;32.062;34.834;2023-04-24T10:10:59;100892.53;;;24.28;46.13
75938;BME280;64615;32.062;34.834;2023-04-24T10:13:25;100887.09;;;24.28;45.85
75938;BME280;64615;32.062;34.834;2023-04-24T10:15:51;100884.38;;;24.28;46.27
75938;BME280;64615;32.062;34.834;2023-04-24T10:18:17;100887.91;;;24.28;45.74
75938;BME280;64615;32.062;34.834;2023-04-24T10:20:44;100877.81;;;24.29;45.83
75938;BME280;64615;32.062;34.834;2023-04-24T10:23:10;100878.09;;;24.27;46.03
75938;BME280;64615;32.062;34.834;2023-04-24T10:25:37;100869.66;;;24.29;46.25
75938;BME280;64615;32.062;34.834;2023-04-24T10:28:03;100875.09;;;24.29;46.13
75938;BME280;64615;32.062;34.834;2023-04-24T10:30:32;100882.19;;;24.30;46.11
75938;BME280;64615;32.062;34.834;2023-04-24T10:33:05;100885.19;;;24.28;46.08
75938;BME280;64615;32.062;34.834;2023-04-24T10:35:36;100880.53;;;24.29;46.00
75938;BME280;64615;32.062;34.834;2023-04-24T10:38:07;100880.53;;;24.29;46.14
75938;BME280;64615;32.062;34.834;2023-04-24T10:40:35;100878.91;;;24.28;46.52
75938;BME280;64615;32.062;34.834;2023-04-24T10:43:05;100884.06;;;24.29;46.35
75938;BME280;64615;32.062;34.834;2023-04-24T10:45:33;100877.81;;;24.29;46.21
75938;BME280;64615;32.062;34.834;2023-04-24T10:48:08;100875.91;;;24.29;46.54
75938;BME280;64615;32.062;34.834;2023-04-24T10:50:44;100863.13;;;24.30;46.33
75938;BME280;64615;32.062;34.834;2023-04-24T10:53:19;100859.59;;;24.29;46.44
75938;BME280;64615;32.062;34.834;2023-04-24T10:55:48;100859.59;;;24.29;46.38
75938;BME280;64615;32.062;34.834;2023-04-24T10:58:14;100852.25;;;24.30;46.63
75938;BME280;64615;32.062;34.834;2023-04-24T11:00:42;100858.50;;;24.30;46.79
75938;BME280;64615;32.062;34.834;2023-04-24T11:03:27;100858.50;;;24.30;46.66
75938;BME280;64615;32.062;34.834;2023-04-24T11:06:01;100857.69;;;24.30;46.66
75938;BME280;64615;32.062;34.834;2023-04-24T11:08:37;100864.78;;;24.31;46.64
75938;BME280;64615;32.062;34.834;2023-04-24T11:11:13;100862.88;;;24.31;46.88
75938;BME280;64615;32.062;34.834;2023-04-24T11:19:08;100859.06;;;24.32;46.92
75938;BME280;64615;32.062;34.834;2023-04-24T11:24:39;100850.09;;;24.32;46.91
75938;BME280;64615;32.062;34.834;2023-04-24T11:27:16;100847.38;;;24.32;46.91
75938;BME280;64615;32.062;34.834;2023-04-24T11:32:41;100848.16;;;24.22;46.73
75938;BME280;64615;32.062;34.834;2023-04-24T11:35:19;100851.38;;;24.19;47.23
75938;BME280;64615;32.062;34.834;2023-04-24T11:37:47;100837.25;;;24.17;47.26
75938;BME280;64615;32.062;34.834;2023-04-24T11:40:18;100835.34;;;24.18;47.32
75938;BME280;64615;32.062;34.834;2023-04-24T11:42:50;100850.84;;;24.17;46.78
75938;BME280;64615;32.062;34.834;2023-04-24T11:45:28;100841.28;;;24.15;47.15
75938;BME280;64615;32.062;34.834;2023-04-24T11:47:55;100841.28;;;24.15;46.96
75938;BME280;64615;32.062;34.834;2023-04-24T11:50:25;100835.84;;;24.15;47.30
75938;BME280;64615;32.062;34.834;2023-04-24T11:52:52;100838.31;;;24.16;47.38
75938;BME280;64615;32.062;34.834;2023-04-24T11:57:45;100842.91;;;24.16;47.38
75938;BME280;64615;32.062;34.834;2023-04-24T12:00:25;100837.47;;;24.16;47.37
75938;BME280;64615;32.062;34.834;2023-04-24T12:03:02;100831.22;;;24.15;47.12
75938;BME280;64615;32.062;34.834;2023-04-24T12:05:29;100828.75;;;24.14;47.47
75938;BME280;64615;32.062;34.834;2023-04-24T12:07:56;100830.66;;;24.13;47.39
75938;BME280;64615;32.062;34.834;2023-04-24T12:10:24;100833.38;;;24.13;47.54
75938;BME280;64615;32.062;34.834;2023-04-24T12:12:50;100827.13;;;24.13;47.68
75938;BME280;64615;32.062;34.834;2023-04-24T12:15:20;100830.13;;;24.16;47.46
75938;BME280;64615;32.062;34.834;2023-04-24T12:17:46;100828.56;;;24.25;47.50
75938;BME280;64615;32.062;34.834;2023-04-24T12:20:13;100827.47;;;24.21;47.17
75938;BME280;64615;32.062;34.834;2023-04-24T12:22:47;100830.69;;;24.18;47.04
75938;BME280;64615;32.062;34.834;2023-04-24T12:25:14;100814.34;;;24.13;47.01
75938;BME280;64615;32.062;34.834;2023-04-24T12:27:40;100810.25;;;24.11;46.80
75938;BME280;64615;32.062;34.834;2023-04-24T12:30:11;100816.25;;;24.13;45.84
75938;BME280;64615;32.062;34.834;2023-04-24T12:32:45;100816.78;;;24.10;46.04
75938;BME280;64615;32.062;34.834;2023-04-24T12:35:11;100826.31;;;24.12;45.94
75938;BME280;64615;32.062;34.834;2023-04-24T12:37:37;100814.91;;;24.15;46.36
75938;BME280;64615;32.062;34.834;2023-04-24T12:40:09;100815.72;;;24.16;46.23
75938;BME280;64615;32.062;34.834;2023-04-24T12:42:42;100811.34;;;24.15;46.18
75938;BME280;64615;32.062;34.834;2023-04-24T12:45:08;100814.91;;;24.15;46.40
75938;BME280;64615;32.062;34.834;2023-04-24T12:47:34;100810.53;;;24.14;46.44
75938;BME280;64615;32.062;34.834;2023-04-24T12:50:01;100819.50;;;24.15;46.75
75938;BME280;64615;32.062;34.834;2023-04-24T12:52:29;100813.00;;;24.16;46.85